createdAt,value
2022-07-31T00:00:38.160Z,99784.59
2022-07-31T00:03:06.250Z,99792.59
2022-07-31T00:05:41.456Z,99788.31
2022-07-31T00:08:09.917Z,99789.63
2022-07-31T00:13:07.425Z,99789.66
2022-07-31T00:15:35.221Z,99788.28
2022-07-31T00:18:03.072Z,99787.72
2022-07-31T00:20:30.947Z,99786.13
2022-07-31T00:22:58.836Z,99784.00
2022-07-31T00:25:26.680Z,99783.69
2022-07-31T00:27:55.907Z,99778.34
2022-07-31T00:30:23.729Z,99784.94
2022-07-31T00:32:52.101Z,99777.72
2022-07-31T00:35:20.463Z,99778.25
2022-07-31T00:37:48.556Z,99779.34
2022-07-31T00:42:46.248Z,99770.47
2022-07-31T00:45:15.581Z,99775.56
2022-07-31T00:47:43.977Z,99777.13
2022-07-31T00:52:41.104Z,99783.81
2022-07-31T00:57:38.559Z,99781.31
2022-07-31T01:00:07.512Z,99781.13
2022-07-31T01:02:38.416Z,99781.63
2022-07-31T01:05:14.780Z,99769.59
2022-07-31T01:07:42.609Z,99772.81
2022-07-31T01:12:54.009Z,99769.28
2022-07-31T01:15:23.975Z,99781.25
2022-07-31T01:17:54.116Z,99771.66
2022-07-31T01:20:22.193Z,99772.97
2022-07-31T01:23:14.215Z,99778.50
2022-07-31T01:25:52.166Z,99793.88
2022-07-31T01:28:30.835Z,99785.91
2022-07-31T01:31:25.363Z,99780.31
2022-07-31T01:34:00.817Z,99779.03
2022-07-31T01:36:34.924Z,99790.38
2022-07-31T01:39:03.982Z,99789.09
2022-07-31T01:41:35.331Z,99785.06
2022-07-31T01:44:06.171Z,99780.06
2022-07-31T01:46:41.715Z,99787.72
2022-07-31T01:49:11.012Z,99788.69
2022-07-31T01:51:40.591Z,99787.88
2022-07-31T01:54:10.020Z,99779.09
2022-07-31T01:56:40.106Z,99786.19
2022-07-31T01:59:20.607Z,99781.13
2022-07-31T02:01:53.096Z,99769.06
2022-07-31T02:04:22.646Z,99769.91
2022-07-31T02:06:51.675Z,99780.72
2022-07-31T02:09:21.945Z,99778.06
2022-07-31T02:11:54.714Z,99771.41
2022-07-31T02:14:24.164Z,99767.16
2022-07-31T02:16:53.568Z,99775.00
2022-07-31T02:19:23.538Z,99756.66
2022-07-31T02:21:51.470Z,99763.34
2022-07-31T02:24:19.803Z,99761.97
2022-07-31T02:26:48.774Z,99765.13
2022-07-31T02:29:19.681Z,99760.69
2022-07-31T02:34:19.333Z,99753.28
2022-07-31T02:36:48.296Z,99756.19
2022-07-31T02:39:17.754Z,99763.91
2022-07-31T02:41:47.224Z,99754.84
2022-07-31T02:44:16.025Z,99764.38
2022-07-31T02:46:55.620Z,99751.66
2022-07-31T02:49:25.581Z,99750.88
2022-07-31T02:51:53.810Z,99753.28
2022-07-31T02:54:21.836Z,99751.16
2022-07-31T02:56:50.061Z,99749.53
2022-07-31T02:59:17.934Z,99742.16
2022-07-31T03:01:47.077Z,99745.13
2022-07-31T03:04:15.022Z,99744.47
2022-07-31T03:06:44.485Z,99746.13
2022-07-31T03:09:12.312Z,99741.03
2022-07-31T03:11:40.258Z,99742.31
2022-07-31T03:14:09.299Z,99734.78
2022-07-31T03:16:37.803Z,99738.16
2022-07-31T03:19:08.435Z,99731.72
2022-07-31T03:21:37.565Z,99734.94
2022-07-31T03:24:07.628Z,99740.59
2022-07-31T03:26:35.631Z,99743.81
2022-07-31T03:31:31.600Z,99746.53
2022-07-31T03:33:59.479Z,99743.69
2022-07-31T03:36:27.430Z,99756.38
2022-07-31T03:38:56.000Z,99740.72
2022-07-31T03:41:25.258Z,99754.56
2022-07-31T03:43:54.509Z,99746.84
2022-07-31T03:46:24.619Z,99747.34
2022-07-31T03:48:53.391Z,99742.31
2022-07-31T03:51:21.658Z,99741.22
2022-07-31T03:53:50.063Z,99753.41
2022-07-31T03:56:20.012Z,99746.41
2022-07-31T03:58:52.737Z,99751.09
2022-07-31T04:01:22.145Z,99753.47
2022-07-31T04:03:50.106Z,99755.88
2022-07-31T04:06:17.988Z,99760.72
2022-07-31T04:08:45.928Z,99767.09
2022-07-31T04:11:15.032Z,99757.06
2022-07-31T04:13:43.470Z,99758.06
2022-07-31T04:16:12.757Z,99753.88
2022-07-31T04:18:40.588Z,99754.94
2022-07-31T04:21:08.439Z,99762.97
2022-07-31T04:23:36.411Z,99759.00
2022-07-31T04:26:04.337Z,99760.56
2022-07-31T04:28:32.333Z,99760.13
2022-07-31T04:31:00.319Z,99764.16
2022-07-31T04:33:29.634Z,99761.22
2022-07-31T04:35:57.495Z,99765.84
2022-07-31T04:38:26.125Z,99761.31
2022-07-31T04:40:54.153Z,99772.19
2022-07-31T04:43:21.987Z,99770.38
2022-07-31T04:45:49.912Z,99762.41
2022-07-31T04:48:17.793Z,99762.72
2022-07-31T04:50:47.174Z,99767.28
2022-07-31T04:53:14.993Z,99772.13
2022-07-31T04:56:03.460Z,99771.53
2022-07-31T04:58:31.311Z,99772.78
2022-07-31T05:03:27.143Z,99771.06
2022-07-31T05:05:56.380Z,99771.44
2022-07-31T05:08:24.518Z,99770.41
2022-07-31T05:11:10.011Z,99773.41
2022-07-31T05:13:37.877Z,99769.44
2022-07-31T05:16:05.924Z,99763.63
2022-07-31T05:18:33.744Z,99772.19
2022-07-31T05:21:02.968Z,99767.91
2022-07-31T05:23:30.874Z,99766.66
2022-07-31T05:25:58.784Z,99765.34
2022-07-31T05:28:29.662Z,99772.03
2022-07-31T05:33:26.230Z,99774.44
2022-07-31T05:35:54.043Z,99780.34
2022-07-31T05:38:23.643Z,99775.53
2022-07-31T05:40:51.763Z,99777.16
2022-07-31T05:43:19.634Z,99786.50
2022-07-31T05:45:47.863Z,99780.13
2022-07-31T05:50:44.188Z,99778.47
2022-07-31T05:53:15.079Z,99784.13
2022-07-31T05:55:45.194Z,99783.56
2022-07-31T05:58:16.812Z,99784.69
2022-07-31T06:00:46.655Z,99783.34
2022-07-31T06:05:43.881Z,99770.53
2022-07-31T06:08:12.398Z,99775.63
2022-07-31T06:10:40.334Z,99770.81
2022-07-31T06:13:09.685Z,99778.03
2022-07-31T06:15:37.608Z,99772.13
2022-07-31T06:18:10.149Z,99776.66
2022-07-31T06:20:38.045Z,99772.34
2022-07-31T06:23:23.113Z,99780.63
2022-07-31T06:25:54.961Z,99775.06
2022-07-31T06:28:41.429Z,99773.13
2022-07-31T06:31:17.841Z,99770.75
2022-07-31T06:33:48.187Z,99769.03
2022-07-31T06:38:44.694Z,99766.22
2022-07-31T06:41:32.699Z,99773.56
2022-07-31T06:44:01.899Z,99769.22
2022-07-31T06:46:29.842Z,99779.53
2022-07-31T06:48:57.702Z,99761.53
2022-07-31T06:51:32.715Z,99764.13
2022-07-31T06:54:00.964Z,99773.97
2022-07-31T06:56:29.688Z,99769.56
2022-07-31T06:58:57.738Z,99770.53
2022-07-31T07:01:27.215Z,99767.50
2022-07-31T07:03:55.824Z,99764.00
2022-07-31T07:06:23.988Z,99759.50
2022-07-31T07:08:52.214Z,99773.72
2022-07-31T07:13:48.787Z,99762.81
2022-07-31T07:16:16.840Z,99763.81
2022-07-31T07:18:46.057Z,99756.06
2022-07-31T07:23:42.904Z,99753.88
2022-07-31T07:26:10.908Z,99750.88
2022-07-31T07:28:40.112Z,99748.28
2022-07-31T07:31:08.210Z,99755.84
2022-07-31T07:33:41.833Z,99756.75
2022-07-31T07:36:22.459Z,99751.84
2022-07-31T07:38:51.605Z,99761.13
2022-07-31T07:41:19.464Z,99759.88
2022-07-31T07:43:48.618Z,99753.00
2022-07-31T07:46:20.254Z,99758.28
2022-07-31T07:48:49.202Z,99750.31
2022-07-31T07:51:18.841Z,99741.59
2022-07-31T07:53:46.752Z,99746.25
2022-07-31T07:56:14.641Z,99746.53
2022-07-31T08:03:49.687Z,99735.13
2022-07-31T08:06:21.338Z,99733.91
2022-07-31T08:08:49.219Z,99737.78
2022-07-31T08:11:17.963Z,99729.94
2022-07-31T08:13:51.196Z,99734.69
2022-07-31T08:16:20.650Z,99726.63
2022-07-31T08:21:16.798Z,99733.41
2022-07-31T08:23:45.991Z,99724.34
2022-07-31T08:26:14.259Z,99723.13
2022-07-31T08:28:50.504Z,99734.50
2022-07-31T08:31:19.068Z,99728.50
2022-07-31T08:33:47.508Z,99728.97
2022-07-31T08:36:15.377Z,99724.34
2022-07-31T08:38:43.341Z,99725.00
2022-07-31T08:41:13.818Z,99721.75
2022-07-31T08:46:30.404Z,99716.38
2022-07-31T08:51:27.661Z,99721.09
2022-07-31T08:53:56.149Z,99718.16
2022-07-31T08:56:25.790Z,99710.34
2022-07-31T08:58:53.633Z,99705.72
2022-07-31T09:01:21.677Z,99712.09
2022-07-31T09:03:49.585Z,99711.44
2022-07-31T09:06:17.563Z,99708.38
2022-07-31T09:08:45.493Z,99708.88
2022-07-31T09:14:02.226Z,99698.53
2022-07-31T09:16:31.774Z,99709.66
2022-07-31T09:24:10.225Z,99704.31
2022-07-31T09:26:40.935Z,99701.72
2022-07-31T09:29:12.575Z,99698.53
2022-07-31T09:34:08.821Z,99702.22
2022-07-31T09:41:58.016Z,99693.91
2022-07-31T09:44:40.557Z,99699.19
2022-07-31T09:47:09.032Z,99691.69
2022-07-31T09:49:36.942Z,99692.28
2022-07-31T09:52:05.294Z,99690.50
2022-07-31T09:54:33.093Z,99684.47
2022-07-31T09:59:41.791Z,99676.56
2022-07-31T10:02:11.669Z,99669.59
2022-07-31T10:04:40.016Z,99667.09
2022-07-31T10:12:18.297Z,99661.03
2022-07-31T10:14:50.664Z,99665.13
2022-07-31T10:25:02.636Z,99648.91
2022-07-31T10:32:29.830Z,99637.44
2022-07-31T10:40:10.166Z,99636.97
2022-07-31T10:42:45.601Z,99628.75
2022-07-31T10:45:16.531Z,99627.88
2022-07-31T10:57:56.697Z,99622.38
2022-07-31T11:00:29.923Z,99601.66
2022-07-31T11:10:30.785Z,99606.56
2022-07-31T11:13:02.161Z,99604.06
2022-07-31T11:18:21.969Z,99598.38
2022-07-31T11:20:48.343Z,99593.03
2022-07-31T11:23:17.753Z,99595.25
2022-07-31T11:25:47.466Z,99593.00
2022-07-31T11:28:18.970Z,99598.22
2022-07-31T11:30:56.256Z,99600.38
2022-07-31T11:33:41.550Z,99600.53
2022-07-31T11:36:12.903Z,99594.56
2022-07-31T11:38:44.696Z,99586.34
2022-07-31T11:48:54.691Z,99586.63
2022-07-31T11:51:22.864Z,99570.97
2022-07-31T11:56:27.791Z,99566.63
2022-07-31T12:13:59.510Z,99558.47
2022-07-31T12:16:28.771Z,99543.09
2022-07-31T12:21:33.243Z,99544.06
2022-07-31T12:26:32.524Z,99546.59
2022-07-31T12:36:39.867Z,99545.81
2022-07-31T12:41:43.171Z,99544.78
2022-07-31T12:44:13.372Z,99544.59
2022-07-31T12:46:43.911Z,99536.69
2022-07-31T12:49:11.914Z,99539.34
2022-07-31T12:51:44.636Z,99540.41
2022-07-31T12:56:43.671Z,99527.69
2022-07-31T13:01:40.959Z,99529.44
2022-07-31T13:04:18.640Z,99526.53
2022-07-31T13:09:16.998Z,99525.66
2022-07-31T13:16:42.949Z,99512.28
2022-07-31T13:19:12.958Z,99502.66
2022-07-31T13:26:46.926Z,99488.63
2022-07-31T13:31:44.652Z,99488.06
2022-07-31T13:36:43.255Z,99469.09
2022-07-31T13:39:12.355Z,99484.31
2022-07-31T13:41:41.796Z,99479.75
2022-07-31T13:51:38.661Z,99486.16
2022-07-31T14:46:47.526Z,99405.38
2022-07-31T15:01:56.735Z,99396.81
2022-07-31T15:19:35.056Z,99373.72
2022-07-31T15:57:22.640Z,99326.56
2022-07-31T15:59:52.334Z,99321.16
2022-07-31T16:27:56.249Z,99293.25
2022-07-31T16:35:27.609Z,99283.31
2022-07-31T16:37:56.585Z,99283.31
2022-07-31T16:43:01.081Z,99274.38
2022-07-31T16:53:04.793Z,99266.16
2022-07-31T17:33:58.345Z,99264.88
2022-07-31T17:36:28.851Z,99271.84
2022-07-31T17:41:26.858Z,99256.53
2022-07-31T18:01:31.852Z,99266.22
2022-07-31T18:16:25.006Z,99279.72
2022-07-31T18:18:54.566Z,99273.34
2022-07-31T18:21:22.720Z,99271.47
2022-07-31T18:26:18.602Z,99270.31
2022-07-31T18:28:47.831Z,99279.94
2022-07-31T18:31:33.909Z,99281.59
2022-07-31T18:44:04.688Z,99281.91
2022-07-31T18:46:33.172Z,99287.09
2022-07-31T18:51:30.581Z,99296.69
2022-07-31T18:53:59.244Z,99292.53
2022-07-31T19:06:23.501Z,99297.97
2022-07-31T19:11:20.282Z,99307.25
2022-07-31T19:16:17.778Z,99314.00
2022-07-31T19:21:23.934Z,99317.25
2022-07-31T19:24:08.767Z,99323.25
2022-07-31T19:26:36.714Z,99319.63
2022-07-31T19:29:04.920Z,99319.72
2022-07-31T19:31:33.010Z,99320.81
2022-07-31T19:34:02.761Z,99324.63
2022-07-31T19:36:30.562Z,99321.16
2022-07-31T19:38:58.518Z,99322.03
2022-07-31T19:41:26.358Z,99333.28
2022-07-31T19:43:54.192Z,99322.47
2022-07-31T19:46:22.005Z,99327.19
2022-07-31T19:48:49.927Z,99326.44
2022-07-31T19:56:20.480Z,99333.94
2022-07-31T19:58:50.211Z,99331.88
2022-07-31T20:01:20.205Z,99330.44
2022-07-31T20:08:46.339Z,99336.22
2022-07-31T20:11:14.155Z,99339.69
2022-07-31T20:13:42.288Z,99343.13
2022-07-31T20:16:10.827Z,99350.50
2022-07-31T20:18:39.117Z,99341.81
2022-07-31T20:21:09.881Z,99345.78
2022-07-31T20:23:39.148Z,99349.31
2022-07-31T20:26:10.271Z,99338.84
2022-07-31T20:28:40.260Z,99329.44
2022-07-31T20:31:08.432Z,99331.19
2022-07-31T20:33:56.485Z,99328.38
2022-07-31T20:36:25.960Z,99331.25
2022-07-31T20:38:54.051Z,99325.06
2022-07-31T20:43:51.403Z,99330.50
2022-07-31T20:48:49.942Z,99326.91
2022-07-31T20:51:20.648Z,99335.69
2022-07-31T20:53:49.175Z,99329.19
2022-07-31T20:56:17.514Z,99332.41
2022-07-31T21:01:20.172Z,99336.69
2022-07-31T21:03:48.204Z,99329.41
2022-07-31T21:08:44.094Z,99336.72
2022-07-31T21:11:12.012Z,99335.63
2022-07-31T21:13:40.030Z,99341.19
2022-07-31T21:16:10.078Z,99352.59
2022-07-31T21:18:42.986Z,99337.56
2022-07-31T21:21:12.112Z,99343.25
2022-07-31T21:23:40.678Z,99344.84
2022-07-31T21:26:11.855Z,99351.34
2022-07-31T21:28:43.625Z,99340.25
2022-07-31T21:31:16.482Z,99341.72
2022-07-31T21:33:49.872Z,99341.38
2022-07-31T21:36:18.538Z,99341.81
2022-07-31T21:38:46.865Z,99347.97
2022-07-31T21:41:16.753Z,99356.50
2022-07-31T21:43:58.763Z,99342.91
2022-07-31T21:46:35.549Z,99350.94
2022-07-31T21:49:08.058Z,99348.56
2022-07-31T21:51:39.474Z,99354.25
2022-07-31T21:54:15.073Z,99361.00
2022-07-31T21:56:45.879Z,99353.91
2022-07-31T21:59:16.716Z,99358.44
2022-07-31T22:01:57.860Z,99362.06
2022-07-31T22:07:21.858Z,99371.75
2022-07-31T22:09:52.751Z,99370.00
2022-07-31T22:14:48.507Z,99378.00
2022-07-31T22:17:17.790Z,99383.03
2022-07-31T22:19:47.332Z,99380.41
2022-07-31T22:22:16.249Z,99382.63
2022-07-31T22:24:44.478Z,99391.09
2022-07-31T22:27:31.399Z,99394.09
2022-07-31T22:29:59.391Z,99393.81
2022-07-31T22:32:29.061Z,99390.75
2022-07-31T22:34:57.020Z,99392.63
2022-07-31T22:37:26.852Z,99395.34
2022-07-31T22:39:55.766Z,99395.25
2022-07-31T22:42:23.811Z,99392.97
2022-07-31T22:44:51.925Z,99388.59
2022-07-31T22:47:19.883Z,99398.34
2022-07-31T22:49:49.408Z,99391.88
2022-07-31T22:52:17.587Z,99391.28
2022-07-31T22:57:14.458Z,99400.25
2022-07-31T22:59:43.064Z,99400.72
2022-07-31T23:04:41.185Z,99402.78
2022-07-31T23:07:10.651Z,99409.31
2022-07-31T23:09:38.719Z,99411.09
2022-07-31T23:12:07.417Z,99412.31
2022-07-31T23:14:35.520Z,99412.31
2022-07-31T23:17:03.959Z,99420.16
2022-07-31T23:19:31.825Z,99415.47
2022-07-31T23:24:28.994Z,99428.47
2022-07-31T23:26:56.862Z,99426.41
2022-07-31T23:29:24.870Z,99419.66
2022-07-31T23:31:52.746Z,99431.84
2022-07-31T23:34:20.605Z,99419.66
2022-07-31T23:36:48.470Z,99422.81
2022-07-31T23:39:16.415Z,99425.41
2022-07-31T23:42:03.596Z,99423.31
2022-07-31T23:44:32.088Z,99420.81
2022-07-31T23:47:08.314Z,99416.16
2022-07-31T23:49:36.748Z,99422.81
2022-07-31T23:52:05.446Z,99425.31
2022-07-31T23:54:33.813Z,99422.13
2022-07-31T23:57:03.028Z,99426.78
2022-07-31T23:59:30.916Z,99423.19
